Aviation Digital Data Service (ADDS)

Output produced by METARs form (0640 UTC 24 March 2019)
found at http://www.aviationweather.gov/metar/data/
 
EIME 240600Z 24011KT 9999 FEW020 03/00 Q1032
TAF EIME 240500Z 2406/2415 25010KT 9999 FEW020 SCT045 
     BECMG 2409/2412 28016G26KT
       
TAF EIKN 240500Z 2406/2506 25010KT 9999 FEW020 BKN040 
     BECMG 2409/2412 28016G28KT 
     BECMG 2416/2418 29015KT 
     BECMG 2421/2424 27005KT 
     PROB40 
     TEMPO 2503/2506 4000 BR
       
EICK 240630Z 28003KT 9999 FEW016 SCT220 02/00 Q1034 NOSIG
TAF EICK 240500Z 2406/2506 31005KT 9999 FEW020 SCT040 
     BECMG 2409/2412 31015KT 
     BECMG 2423/2502 29005KT
       
TAF EIDL 240500Z 2406/2415 25020G30KT 9999 SCT020 BKN030 
     BECMG 2409/2412 28022G35KT 
     TEMPO 2409/2415 -SHRA BKN014
       
EIDW 240630Z 25008KT 9999 FEW017 02/00 Q1032 NOSIG
TAF EIDW 240500Z 2406/2506 25007KT 9999 FEW020 
     BECMG 2406/2408 26012KT 
     BECMG 2409/2411 27015G25KT 
     TEMPO 2411/2416 29018G30KT 
     BECMG 2416/2418 30015G25KT 
     BECMG 2419/2421 29012KT 
     BECMG 2503/2506 29007KT 
     PROB30 
     TEMPO 2505/2506 4000 BR
       
TAF EIKY 240500Z 2406/2415 28005KT 9999 SCT020 BKN040 
     BECMG 2409/2412 31012KT
       
EINN 240630Z 25007KT 9999 FEW042 04/02 Q1034 NOSIG
TAF EINN 240500Z 2406/2506 25007KT 9999 FEW030 BKN045 
     BECMG 2408/2411 29013KT 
     TEMPO 2412/2416 29015G25KT 
     BECMG 2423/2502 32006KT
       
TAF EISG 240500Z 2406/2415 25013KT 9999 SCT020 BKN045 
     BECMG 2409/2412 28019G29KT 
     TEMPO 2412/2415 -SHRA BKN014
       
TAF EIWF 240500Z 2406/2415 34007KT 9999 FEW040 
     BECMG 2411/2414 31013KT